createdAt,value
2022-08-26T00:00:07.758Z,58.38
2022-08-26T00:03:01.590Z,59.13
2022-08-26T00:05:31.115Z,58.00
2022-08-26T00:07:59.293Z,57.54
2022-08-26T00:10:27.572Z,57.53
2022-08-26T00:12:55.756Z,57.60
2022-08-26T00:15:25.395Z,57.86
2022-08-26T00:17:53.692Z,58.16
2022-08-26T00:20:24.069Z,58.25
2022-08-26T00:22:52.522Z,58.32
2022-08-26T00:25:21.272Z,58.33
2022-08-26T00:27:49.469Z,58.35
2022-08-26T00:30:22.823Z,58.43
2022-08-26T00:32:53.083Z,58.42
2022-08-26T00:35:21.990Z,58.66
2022-08-26T00:37:51.454Z,58.75
2022-08-26T00:40:21.840Z,58.93
2022-08-26T00:42:50.231Z,59.00
2022-08-26T00:45:18.492Z,59.28
2022-08-26T00:47:48.917Z,59.67
2022-08-26T00:50:19.413Z,60.16
2022-08-26T00:52:48.336Z,60.35
2022-08-26T00:55:24.648Z,60.60
2022-08-26T00:57:56.254Z,60.40
2022-08-26T01:00:26.760Z,60.17
2022-08-26T01:02:56.292Z,60.69
2022-08-26T01:05:25.604Z,60.81
2022-08-26T01:07:54.098Z,60.33
2022-08-26T01:10:28.366Z,60.10
2022-08-26T01:12:58.085Z,60.12
2022-08-26T01:15:32.967Z,60.01
2022-08-26T01:18:03.127Z,59.93
2022-08-26T01:20:40.331Z,59.71
2022-08-26T01:23:10.649Z,59.34
2022-08-26T01:25:43.144Z,59.28
2022-08-26T01:28:21.987Z,59.14
2022-08-26T01:30:52.830Z,59.21
2022-08-26T01:33:23.778Z,59.15
2022-08-26T01:35:52.614Z,58.75
2022-08-26T01:38:23.652Z,58.30
2022-08-26T01:40:53.637Z,58.30
2022-08-26T01:43:25.387Z,58.44
2022-08-26T01:45:57.193Z,58.63
2022-08-26T01:48:28.815Z,59.15
2022-08-26T01:50:57.676Z,59.82
2022-08-26T01:53:26.646Z,60.18
2022-08-26T01:55:59.110Z,60.62
2022-08-26T01:58:33.271Z,61.12
2022-08-26T02:01:01.727Z,61.32
2022-08-26T02:03:31.117Z,61.75
2022-08-26T02:06:04.228Z,62.03
2022-08-26T02:08:37.171Z,62.27
2022-08-26T02:11:05.707Z,62.60
2022-08-26T02:13:35.262Z,62.74
2022-08-26T02:16:04.162Z,62.87
2022-08-26T02:18:35.264Z,63.00
2022-08-26T02:21:03.935Z,63.32
2022-08-26T02:23:35.195Z,63.42
2022-08-26T02:26:17.829Z,63.74
2022-08-26T02:29:00.273Z,64.15
2022-08-26T02:31:29.124Z,64.31
2022-08-26T02:34:07.157Z,64.56
2022-08-26T02:36:39.109Z,64.62
2022-08-26T02:39:08.445Z,64.81
2022-08-26T02:41:44.080Z,64.95
2022-08-26T02:44:13.700Z,65.29
2022-08-26T02:46:41.980Z,65.12
2022-08-26T02:49:17.142Z,65.12
2022-08-26T02:51:45.993Z,65.11
2022-08-26T02:54:14.225Z,65.15
2022-08-26T02:56:43.002Z,65.05
2022-08-26T02:59:14.268Z,64.93
2022-08-26T03:01:42.855Z,64.73
2022-08-26T03:04:12.338Z,64.93
2022-08-26T03:06:41.472Z,64.97
2022-08-26T03:09:09.920Z,65.21
2022-08-26T03:11:42.794Z,65.39
2022-08-26T03:14:11.982Z,65.21
2022-08-26T03:16:41.124Z,64.99
2022-08-26T03:19:10.289Z,65.09
2022-08-26T03:21:39.177Z,65.15
2022-08-26T03:24:10.310Z,65.33
2022-08-26T03:26:38.625Z,65.37
2022-08-26T03:29:25.880Z,65.41
2022-08-26T03:31:54.436Z,65.56
2022-08-26T03:34:23.186Z,65.58
2022-08-26T03:36:51.381Z,65.65
2022-08-26T03:39:19.630Z,65.56
2022-08-26T03:41:48.148Z,65.57
2022-08-26T03:44:16.299Z,65.36
2022-08-26T03:46:45.760Z,65.36
2022-08-26T03:49:13.957Z,65.60
2022-08-26T03:51:43.508Z,65.95
2022-08-26T03:54:13.077Z,66.24
2022-08-26T03:56:41.259Z,66.35
2022-08-26T03:59:10.061Z,66.28
2022-08-26T04:01:38.282Z,66.58
2022-08-26T04:04:06.745Z,66.95
2022-08-26T04:06:37.247Z,67.22
2022-08-26T04:09:07.660Z,67.30
2022-08-26T04:11:38.683Z,67.34
2022-08-26T04:14:09.325Z,67.43
2022-08-26T04:16:39.206Z,67.26
2022-08-26T04:19:07.920Z,67.20
2022-08-26T04:21:38.490Z,66.84
2022-08-26T04:24:11.358Z,66.70
2022-08-26T04:26:42.740Z,66.89
2022-08-26T04:29:14.558Z,66.59
2022-08-26T04:31:42.788Z,66.33
2022-08-26T04:34:11.212Z,66.37
2022-08-26T04:36:43.407Z,66.31
2022-08-26T04:39:12.702Z,65.91
2022-08-26T04:41:40.898Z,65.62
2022-08-26T04:44:09.125Z,65.38
2022-08-26T04:46:39.814Z,65.42
2022-08-26T04:49:12.169Z,65.53
2022-08-26T04:51:40.443Z,65.26
2022-08-26T04:54:08.930Z,65.27
2022-08-26T04:56:38.618Z,64.95
2022-08-26T04:59:16.629Z,64.57
2022-08-26T05:01:46.655Z,64.32
2022-08-26T05:04:16.261Z,64.12
2022-08-26T05:06:47.790Z,63.55
2022-08-26T05:09:16.513Z,63.29
2022-08-26T05:11:48.529Z,62.75
2022-08-26T05:14:22.493Z,62.77
2022-08-26T05:16:50.786Z,62.70
2022-08-26T05:19:19.573Z,62.44
2022-08-26T05:21:48.898Z,61.98
2022-08-26T05:24:18.019Z,61.45
2022-08-26T05:26:48.085Z,60.75
2022-08-26T05:29:16.933Z,59.87
2022-08-26T05:31:45.241Z,59.99
2022-08-26T05:34:13.699Z,59.52
2022-08-26T05:36:42.497Z,59.24
2022-08-26T05:39:10.866Z,58.98
2022-08-26T05:41:41.334Z,58.27
2022-08-26T05:44:12.887Z,57.57
2022-08-26T05:46:44.901Z,56.48
2022-08-26T05:49:14.557Z,56.69
2022-08-26T05:51:47.746Z,55.76
2022-08-26T05:54:21.874Z,54.80
2022-08-26T05:56:51.439Z,54.16
2022-08-26T05:59:24.242Z,53.14
2022-08-26T06:01:55.255Z,52.91
2022-08-26T06:04:28.609Z,52.91
2022-08-26T06:07:00.887Z,51.59
2022-08-26T06:09:29.139Z,51.81
2022-08-26T06:11:58.994Z,51.29
2022-08-26T06:14:30.823Z,50.69
2022-08-26T06:16:59.073Z,50.44
2022-08-26T06:19:32.754Z,50.14
2022-08-26T06:22:23.291Z,48.51
2022-08-26T06:25:13.227Z,48.80
2022-08-26T06:27:41.605Z,48.81
2022-08-26T06:30:10.694Z,48.14
2022-08-26T06:32:38.919Z,46.96
2022-08-26T06:35:07.320Z,45.35
2022-08-26T06:37:41.236Z,45.07
2022-08-26T06:40:10.004Z,43.44
2022-08-26T06:42:39.943Z,43.35
2022-08-26T06:45:08.624Z,44.18
2022-08-26T06:47:37.215Z,44.21
2022-08-26T06:50:05.650Z,43.05
2022-08-26T06:52:33.832Z,42.51
2022-08-26T06:55:03.328Z,40.97
2022-08-26T06:57:33.091Z,41.87
2022-08-26T07:00:10.806Z,41.57
2022-08-26T07:02:39.525Z,40.50
2022-08-26T07:05:08.038Z,38.35
2022-08-26T07:07:37.683Z,38.39
2022-08-26T07:10:08.702Z,38.24
2022-08-26T07:12:37.182Z,37.48
2022-08-26T07:15:06.272Z,35.40
2022-08-26T07:17:36.302Z,35.64
2022-08-26T07:20:07.638Z,33.51
2022-08-26T07:22:37.342Z,32.19
2022-08-26T07:25:09.486Z,33.95
2022-08-26T07:27:38.386Z,32.90
2022-08-26T07:30:07.669Z,33.24
2022-08-26T07:32:37.736Z,32.98
2022-08-26T07:35:06.486Z,32.51
2022-08-26T07:37:35.591Z,33.03
2022-08-26T07:40:09.570Z,33.33
2022-08-26T07:42:37.891Z,31.36
2022-08-26T07:45:06.660Z,32.53
2022-08-26T07:47:35.406Z,33.11
2022-08-26T07:50:04.047Z,32.50
2022-08-26T07:52:34.459Z,30.69
2022-08-26T07:55:02.777Z,30.88
2022-08-26T07:57:31.068Z,31.00
2022-08-26T08:00:00.013Z,31.34
2022-08-26T08:02:29.350Z,31.75
2022-08-26T08:04:58.675Z,32.35
2022-08-26T08:07:44.190Z,32.61
2022-08-26T08:10:15.890Z,32.63
2022-08-26T08:12:44.711Z,31.93
2022-08-26T08:15:13.984Z,31.57
2022-08-26T08:17:43.706Z,32.16
2022-08-26T08:20:13.743Z,31.42
2022-08-26T08:22:43.360Z,29.10
2022-08-26T08:25:12.599Z,29.81
2022-08-26T08:27:42.604Z,29.88
2022-08-26T08:30:13.915Z,29.34
2022-08-26T08:32:43.834Z,28.06
2022-08-26T08:35:14.254Z,27.08
2022-08-26T08:37:44.075Z,26.79
2022-08-26T08:40:18.571Z,28.16
2022-08-26T08:42:49.974Z,29.12
2022-08-26T08:45:22.500Z,28.86
2022-08-26T08:47:54.626Z,27.63
2022-08-26T08:50:23.012Z,28.01
2022-08-26T08:53:00.236Z,26.79
2022-08-26T08:55:31.645Z,25.93
2022-08-26T08:58:06.293Z,24.76
2022-08-26T09:00:44.417Z,25.35
2022-08-26T09:03:35.758Z,24.59
2022-08-26T09:06:04.236Z,24.35
2022-08-26T09:08:35.992Z,23.42
2022-08-26T09:11:04.622Z,23.85
2022-08-26T09:13:36.113Z,24.56
2022-08-26T09:16:31.504Z,25.37
2022-08-26T09:19:19.354Z,24.00
2022-08-26T09:21:55.193Z,24.62
2022-08-26T09:24:28.621Z,24.14
2022-08-26T09:26:59.424Z,23.63
2022-08-26T09:29:27.697Z,24.31
2022-08-26T09:32:19.466Z,23.36
2022-08-26T09:34:54.656Z,22.57
2022-08-26T09:37:38.045Z,23.80
2022-08-26T09:40:27.397Z,20.63
2022-08-26T09:43:23.040Z,20.98
2022-08-26T09:45:59.429Z,20.30
2022-08-26T09:48:32.696Z,20.88
2022-08-26T09:51:06.227Z,21.33
2022-08-26T09:53:40.202Z,20.96
2022-08-26T09:56:12.342Z,20.79
2022-08-26T09:58:42.300Z,20.96
2022-08-26T10:01:23.467Z,20.38
2022-08-26T10:03:52.161Z,21.83
2022-08-26T10:06:23.113Z,21.78
2022-08-26T10:08:57.856Z,22.08
2022-08-26T10:11:42.770Z,22.01
2022-08-26T10:14:11.485Z,21.60
2022-08-26T10:16:39.678Z,20.97
2022-08-26T10:19:19.038Z,20.67
2022-08-26T10:21:54.212Z,21.17
2022-08-26T10:24:26.270Z,20.68
2022-08-26T10:27:15.055Z,20.71
2022-08-26T10:29:46.063Z,21.25
2022-08-26T10:32:28.160Z,20.69
2022-08-26T10:34:56.729Z,20.54
2022-08-26T10:37:31.416Z,20.74
2022-08-26T10:40:23.986Z,20.90
2022-08-26T10:42:55.099Z,21.01
2022-08-26T10:45:25.935Z,21.39
2022-08-26T10:48:00.172Z,21.15
2022-08-26T10:50:39.473Z,20.63
2022-08-26T10:53:07.670Z,19.33
2022-08-26T10:55:48.429Z,20.21
2022-08-26T10:58:16.571Z,19.21
2022-08-26T11:01:40.874Z,19.23
2022-08-26T11:04:35.103Z,18.74
2022-08-26T11:07:22.114Z,19.88
2022-08-26T11:09:51.473Z,19.82
2022-08-26T11:12:34.724Z,18.99
2022-08-26T11:15:11.834Z,19.48
2022-08-26T11:17:45.019Z,18.71
2022-08-26T11:20:16.286Z,19.29
2022-08-26T11:22:48.006Z,19.21
2022-08-26T11:25:18.193Z,18.41
2022-08-26T11:27:51.704Z,18.82
2022-08-26T11:30:20.422Z,19.67
2022-08-26T11:32:56.448Z,19.11
2022-08-26T11:35:24.950Z,20.22
2022-08-26T11:38:02.226Z,20.06
2022-08-26T11:40:35.521Z,21.13
2022-08-26T11:43:07.685Z,21.21
2022-08-26T11:45:44.099Z,22.13
2022-08-26T11:48:23.837Z,19.94
2022-08-26T11:50:55.392Z,20.92
2022-08-26T11:53:24.390Z,22.12
2022-08-26T11:55:56.221Z,20.30
2022-08-26T11:58:27.100Z,18.68
2022-08-26T12:00:59.980Z,18.73
2022-08-26T12:03:36.304Z,19.24
2022-08-26T12:06:12.019Z,20.04
2022-08-26T12:08:44.258Z,20.03
2022-08-26T12:11:20.169Z,19.33
2022-08-26T12:14:15.533Z,19.04
2022-08-26T12:16:44.211Z,20.14
2022-08-26T12:19:27.767Z,18.92
2022-08-26T12:22:00.630Z,19.53
2022-08-26T12:24:29.065Z,19.14
2022-08-26T12:27:17.959Z,19.58
2022-08-26T12:29:59.913Z,19.63
2022-08-26T12:32:29.021Z,20.83
2022-08-26T12:34:58.512Z,20.18
2022-08-26T12:37:27.365Z,19.44
2022-08-26T12:39:56.341Z,20.06
2022-08-26T12:42:40.516Z,20.42
2022-08-26T12:45:09.048Z,21.26
2022-08-26T12:47:42.661Z,21.43
2022-08-26T12:50:18.447Z,20.98
2022-08-26T12:53:03.184Z,21.57
2022-08-26T12:55:43.986Z,20.14
2022-08-26T12:58:23.676Z,20.14
2022-08-26T13:01:12.154Z,20.34
2022-08-26T13:03:45.758Z,20.94
2022-08-26T13:06:22.942Z,21.47
2022-08-26T13:08:53.224Z,20.42
2022-08-26T13:11:21.395Z,18.80
2022-08-26T13:13:53.596Z,19.29
2022-08-26T13:16:22.385Z,20.25
2022-08-26T13:18:52.265Z,19.69
2022-08-26T13:21:22.549Z,19.64
2022-08-26T13:23:51.145Z,19.20
2022-08-26T13:26:19.845Z,18.68
2022-08-26T13:28:48.625Z,18.62
2022-08-26T13:31:30.516Z,19.26
2022-08-26T13:33:59.126Z,19.17
2022-08-26T13:36:27.344Z,21.43
2022-08-26T13:38:55.715Z,21.72
2022-08-26T13:41:29.550Z,21.34
2022-08-26T13:43:59.459Z,20.42
2022-08-26T13:46:28.489Z,19.57
2022-08-26T13:48:57.870Z,19.31
2022-08-26T13:51:27.038Z,19.36
2022-08-26T13:53:55.554Z,20.08
2022-08-26T13:56:24.778Z,20.38
2022-08-26T13:58:53.093Z,20.29
2022-08-26T14:01:21.394Z,20.31
2022-08-26T14:03:53.725Z,20.79
2022-08-26T14:06:22.333Z,20.82
2022-08-26T14:08:50.495Z,20.02
2022-08-26T14:11:19.200Z,20.15
2022-08-26T14:13:47.944Z,20.69
2022-08-26T14:16:24.455Z,20.32
2022-08-26T14:18:53.297Z,19.10
2022-08-26T14:21:22.049Z,19.58
2022-08-26T14:23:50.330Z,21.40
2022-08-26T14:26:27.768Z,20.79
2022-08-26T14:28:59.080Z,19.47
2022-08-26T14:31:29.627Z,19.49
2022-08-26T14:33:59.873Z,20.12
2022-08-26T14:36:36.239Z,20.56
2022-08-26T14:39:09.736Z,20.71
2022-08-26T14:41:53.968Z,20.88
2022-08-26T14:44:28.041Z,21.45
2022-08-26T14:46:56.300Z,21.27
2022-08-26T14:49:25.448Z,21.74
2022-08-26T14:51:54.623Z,21.75
2022-08-26T14:54:22.795Z,21.87
2022-08-26T14:56:52.285Z,23.17
2022-08-26T14:59:28.294Z,22.82
2022-08-26T15:01:57.180Z,22.48
2022-08-26T15:04:25.469Z,23.10
2022-08-26T15:06:54.803Z,22.40
2022-08-26T15:09:23.504Z,22.24
2022-08-26T15:11:53.273Z,22.53
2022-08-26T15:14:22.139Z,23.07
2022-08-26T15:16:52.452Z,21.84
2022-08-26T15:19:21.166Z,21.56
2022-08-26T15:21:49.677Z,21.31
2022-08-26T15:24:19.634Z,21.68
2022-08-26T15:26:48.999Z,21.88
2022-08-26T15:29:17.814Z,22.83
2022-08-26T15:31:46.100Z,22.92
2022-08-26T15:34:16.794Z,23.52
2022-08-26T15:36:46.898Z,23.87
2022-08-26T15:39:16.471Z,22.87
2022-08-26T15:41:44.939Z,22.97
2022-08-26T15:44:14.471Z,22.42
2022-08-26T15:46:43.247Z,23.10
2022-08-26T15:49:17.553Z,23.47
2022-08-26T15:51:48.260Z,24.07
2022-08-26T15:54:17.427Z,24.75
2022-08-26T15:56:47.983Z,25.07
2022-08-26T15:59:16.556Z,24.82
2022-08-26T16:01:44.993Z,25.02
2022-08-26T16:04:14.246Z,25.44
2022-08-26T16:06:43.660Z,25.77
2022-08-26T16:09:11.812Z,25.59
2022-08-26T16:11:43.005Z,26.56
2022-08-26T16:14:11.442Z,26.42
2022-08-26T16:16:40.625Z,26.22
2022-08-26T16:19:08.827Z,26.47
2022-08-26T16:21:37.502Z,27.34
2022-08-26T16:24:06.006Z,28.16
2022-08-26T16:26:35.492Z,27.90
2022-08-26T16:29:05.468Z,27.97
2022-08-26T16:31:33.742Z,29.24
2022-08-26T16:34:01.940Z,29.12
2022-08-26T16:36:30.178Z,29.72
2022-08-26T16:38:58.358Z,29.82
2022-08-26T16:41:28.079Z,31.86
2022-08-26T16:43:56.546Z,32.00
2022-08-26T16:46:26.470Z,29.78
2022-08-26T16:48:56.223Z,29.92
2022-08-26T16:51:27.196Z,30.02
2022-08-26T16:53:56.581Z,29.90
2022-08-26T16:56:33.416Z,30.43
2022-08-26T16:59:04.401Z,30.96
2022-08-26T17:01:32.582Z,31.01
2022-08-26T17:04:00.754Z,31.63
2022-08-26T17:06:28.935Z,32.30
2022-08-26T17:08:57.135Z,32.07
2022-08-26T17:11:25.320Z,32.28
2022-08-26T17:13:53.511Z,32.53
2022-08-26T17:16:26.484Z,33.19
2022-08-26T17:18:58.668Z,33.15
2022-08-26T17:21:28.090Z,33.02
2022-08-26T17:23:56.703Z,33.19
2022-08-26T17:26:25.557Z,33.31
2022-08-26T17:28:54.104Z,33.55
2022-08-26T17:31:23.630Z,33.65
2022-08-26T17:33:53.744Z,33.85
2022-08-26T17:36:28.098Z,33.96
2022-08-26T17:38:57.601Z,34.26
2022-08-26T17:41:26.488Z,34.49
2022-08-26T17:43:54.768Z,34.71
2022-08-26T17:46:23.165Z,34.48
2022-08-26T17:48:51.531Z,34.57
2022-08-26T17:51:19.823Z,34.83
2022-08-26T17:53:48.690Z,35.23
2022-08-26T17:56:18.764Z,35.30
2022-08-26T17:58:48.224Z,35.34
2022-08-26T18:01:21.103Z,35.44
2022-08-26T18:03:50.074Z,35.60
2022-08-26T18:06:19.570Z,36.16
2022-08-26T18:08:48.508Z,35.92
2022-08-26T18:11:18.430Z,35.97
2022-08-26T18:13:47.765Z,36.12
2022-08-26T18:16:17.831Z,35.92
2022-08-26T18:18:47.014Z,36.23
2022-08-26T18:21:17.072Z,36.29
2022-08-26T18:23:46.222Z,36.45
2022-08-26T18:26:19.146Z,36.65
2022-08-26T18:28:47.327Z,36.59
2022-08-26T18:31:15.797Z,36.90
2022-08-26T18:33:44.558Z,36.87
2022-08-26T18:36:20.482Z,37.39
2022-08-26T18:38:50.315Z,37.14
2022-08-26T18:41:21.092Z,37.11
2022-08-26T18:43:50.652Z,37.40
2022-08-26T18:46:20.309Z,37.67
2022-08-26T18:48:50.995Z,37.94
2022-08-26T18:51:21.773Z,37.43
2022-08-26T18:53:50.073Z,37.49
2022-08-26T18:56:18.879Z,37.54
2022-08-26T18:58:47.516Z,37.75
2022-08-26T19:01:16.469Z,38.18
2022-08-26T19:03:45.587Z,38.62
2022-08-26T19:06:14.883Z,38.61
2022-08-26T19:08:44.731Z,38.68
2022-08-26T19:11:14.030Z,38.99
2022-08-26T19:13:43.248Z,40.23
2022-08-26T19:16:23.230Z,43.54
2022-08-26T19:18:53.007Z,40.22
2022-08-26T19:21:22.586Z,40.02
2022-08-26T19:23:51.580Z,39.88
2022-08-26T19:26:19.683Z,39.97
2022-08-26T19:28:49.643Z,39.96
2022-08-26T19:31:17.911Z,39.79
2022-08-26T19:33:46.116Z,39.96
2022-08-26T19:36:17.828Z,40.22
2022-08-26T19:38:46.403Z,40.88
2022-08-26T19:41:15.875Z,41.20
2022-08-26T19:43:44.031Z,41.38
2022-08-26T19:46:23.796Z,42.10
2022-08-26T19:48:55.272Z,42.43
2022-08-26T19:51:25.898Z,42.59
2022-08-26T19:53:55.546Z,42.61
2022-08-26T19:56:24.005Z,42.96
2022-08-26T19:58:52.151Z,43.42
2022-08-26T20:01:20.376Z,43.77
2022-08-26T20:03:49.348Z,43.79
2022-08-26T20:06:18.027Z,44.99
2022-08-26T20:08:46.337Z,44.52
2022-08-26T20:11:16.410Z,44.84
2022-08-26T20:13:45.636Z,45.26
2022-08-26T20:16:14.298Z,45.26
2022-08-26T20:19:02.010Z,45.95
2022-08-26T20:21:33.295Z,46.44
2022-08-26T20:24:06.099Z,46.63
2022-08-26T20:26:36.120Z,47.78
2022-08-26T20:29:04.897Z,48.32
2022-08-26T20:31:33.067Z,48.63
2022-08-26T20:34:01.601Z,48.90
2022-08-26T20:36:30.023Z,48.74
2022-08-26T20:38:58.533Z,48.96
2022-08-26T20:41:26.679Z,49.22
2022-08-26T20:43:55.741Z,49.66
2022-08-26T20:46:25.037Z,49.61
2022-08-26T20:48:54.044Z,49.85
2022-08-26T20:51:23.797Z,50.16
2022-08-26T20:53:51.976Z,50.34
2022-08-26T20:56:23.929Z,50.56
2022-08-26T20:58:54.297Z,50.59
2022-08-26T21:01:23.955Z,50.09
2022-08-26T21:03:53.121Z,50.43
2022-08-26T21:06:21.372Z,49.95
2022-08-26T21:08:51.136Z,49.69
2022-08-26T21:11:19.848Z,50.68
2022-08-26T21:14:04.363Z,50.98
2022-08-26T21:16:39.521Z,50.83
2022-08-26T21:19:10.777Z,51.32
2022-08-26T21:21:39.230Z,51.98
2022-08-26T21:24:07.913Z,52.48
2022-08-26T21:26:36.453Z,52.72
2022-08-26T21:29:05.439Z,52.82
2022-08-26T21:31:33.655Z,53.08
2022-08-26T21:34:01.853Z,53.08
2022-08-26T21:36:30.122Z,53.37
2022-08-26T21:38:58.461Z,53.30
2022-08-26T21:41:27.298Z,53.06
2022-08-26T21:43:59.308Z,53.07
2022-08-26T21:46:29.302Z,53.00
2022-08-26T21:48:59.045Z,53.03
2022-08-26T21:51:28.674Z,53.43
2022-08-26T21:53:57.744Z,53.65
2022-08-26T21:56:27.619Z,53.28
2022-08-26T21:58:56.552Z,53.16
2022-08-26T22:01:26.496Z,52.95
2022-08-26T22:03:54.899Z,52.25
2022-08-26T22:06:24.653Z,52.27
2022-08-26T22:08:53.298Z,52.11
2022-08-26T22:11:21.566Z,52.16
2022-08-26T22:13:49.947Z,52.17
2022-08-26T22:16:18.300Z,52.12
2022-08-26T22:18:46.452Z,52.75
2022-08-26T22:21:16.965Z,53.25
2022-08-26T22:23:45.512Z,53.52
2022-08-26T22:26:15.216Z,53.68
2022-08-26T22:28:58.539Z,53.90
2022-08-26T22:31:33.674Z,54.03
2022-08-26T22:34:11.190Z,54.36
2022-08-26T22:36:44.027Z,54.66
2022-08-26T22:39:16.567Z,55.01
2022-08-26T22:41:45.473Z,55.22
2022-08-26T22:44:13.591Z,55.26
2022-08-26T22:46:42.202Z,55.48
2022-08-26T22:49:11.536Z,55.69
2022-08-26T22:51:39.788Z,55.99
2022-08-26T22:54:08.106Z,56.07
2022-08-26T22:56:36.690Z,55.92
2022-08-26T22:59:06.919Z,55.85
2022-08-26T23:01:36.894Z,55.85
2022-08-26T23:04:06.443Z,55.71
2022-08-26T23:06:36.025Z,56.22
2022-08-26T23:09:04.888Z,56.42
2022-08-26T23:11:33.218Z,56.19
2022-08-26T23:14:06.188Z,56.82
2022-08-26T23:16:39.104Z,57.08
2022-08-26T23:19:08.440Z,57.22
2022-08-26T23:21:36.667Z,57.32
2022-08-26T23:24:05.473Z,57.29
2022-08-26T23:26:34.441Z,57.45
2022-08-26T23:29:02.925Z,57.68
2022-08-26T23:31:31.651Z,57.88
2022-08-26T23:34:18.623Z,58.08
2022-08-26T23:36:48.055Z,58.12
2022-08-26T23:39:16.280Z,57.91
2022-08-26T23:41:44.646Z,58.13
2022-08-26T23:44:13.162Z,58.57
2022-08-26T23:46:41.338Z,58.11
2022-08-26T23:49:09.473Z,58.51
2022-08-26T23:51:57.365Z,58.48
2022-08-26T23:54:25.760Z,58.51
2022-08-26T23:56:53.881Z,58.64
2022-08-26T23:59:22.083Z,58.63
